RJECRJAA

Guest
Details From RJEC - Asahikawa
To RJAA - NARITA INTL
Flight Number -
Tags generated
Created
Modified
Stats Distance 489 nm / 906 km
Max Altitude 34,000 ft / 10,363 m
Waypoints 9
Social Downloads 3
Likes 0
Share VATSIM

Download

Looking for another format? Having issues loading an existing format? Contact us
Advertisement - Login to hide

Notes

Basic altitude profile: - Ascent Rate: 2500ft/min - Ascent Speed: 250kts - Cruise Altitude: 35000ft - Cruise Speed: 420kts - Descent Rate: 1500ft/min - Descent Speed: 250kts Options: - Use NATs: yes - Use PACOTS: yes - Use low airways: yes - Use high airways: yes

Route

RJEC NAVER V11 YTE V32 GOC RJAA

ID Type Via Altitude Latitude Longitude Leg Dist Tot Dist Heading (true) Name
O RJEC APT - 0 ft / 0 m 43.67072˚ 142.44758˚ - 0 nm - Asahikawa
NAVER FIX - 34,000 ft / 10,363 m 42.12874˚ 141.52559˚ 101 nm 101 nm 204° / 203° -
IBURI FIX V11 (AWY-HI) 34,000 ft / 10,363 m 41.93293˚ 141.47091˚ 12 nm 113 nm 192° / 192° -
MWE VOR V11 (AWY-HI) 34,000 ft / 10,363 m 40.80891˚ 141.15736˚ 68 nm 182 nm 192° / 192° TOHOKU VOR-DME
SAMBO FIX V11 (AWY-HI) 34,000 ft / 10,363 m 40.18776˚ 140.95038˚ 38 nm 220 nm 194° / 194° -
HANKA FIX V11 (AWY-HI) 34,000 ft / 10,363 m 39.01832˚ 140.56133˚ 72 nm 293 nm 195° / 194° -
YTE VOR V11 (AWY-HI) 32,600 ft / 9,936 m 38.38862˚ 140.35795˚ 39 nm 332 nm 194° / 194° YAMAGATA VOR-DME
GOC VOR V32 (AWY-HI) 12,400 ft / 3,780 m 36.74437˚ 140.34985˚ 98 nm 430 nm 180° / 180° DAIGO VORTAC
O RJAA APT - 0 ft / 0 m 35.77655˚ 140.38277˚ 58 nm 488 nm 178° / 178° NARITA INTL

Altitude Profile

Advertisement - Login to hide

Weather


0- 5 10 15 20 25 30 35+ Temperature / ° C

Clouds and Precipitation
Forecast for 2017-12-14 12:00 UTC. Updated an hour ago

Ground ~20,000 ft ~40,000 ft Winds

RJEC

Details ICAO RJEC (AKJ)
Name Asahikawa
Region Japan
Timezone Asia/Tokyo (UTC+9.0)
Stats Elevation 721 ft / 220 m (AMSL)
Location 43.670716° 142.447581°
Runways 1
Magnetic Variation 9.511° W

METAR

RJEC 141000Z 04003KT 9999 FEW008 SCT020 BKN040 M02/M06 Q1020

Decode

TAF

TAF TAF RJEC 140509Z 1406/1512 33010KT 9999 FEW020 BKN040 BECMG 1410/1412 18010KT TEMPO 1418/1500 3000 -SHSN

Decode

Departure Runways

ID Width Length Bearing (true) Bearing (mag) Surface Threshold Offset Overrun Length
16 200 ft / 61 m 8,205 ft / 2,501 m 154.26° 163.77° Asphalt 0 ft / 0 m 210 ft / 64 m
34 200 ft / 61 m 8,205 ft / 2,501 m 334.27° 343.78° Asphalt 0 ft / 0 m 200 ft / 61 m

RJAA

Details ICAO RJAA (NRT)
Name NARITA INTL
Region Japan
Timezone Asia/Tokyo (UTC+9.0)
Stats Elevation 141 ft / 43 m (AMSL)
Location 35.776552° 140.382770°
Runways 2
Magnetic Variation 7.405° W

METAR

RJAA 141030Z 01009KT 9999 FEW030 SCT/// 06/M05 Q1023 NOSIG

Decode

TAF

TAF RJAA 140507Z 1406/1512 34006KT 9999 FEW030= TAF RJBB 140510Z 1406/1512 35014KT 9999 FEW020 SCT040 BECMG 1418/1421 07006KT

Decode

Destination Runways

ID Width Length Bearing (true) Bearing (mag) Surface Threshold Offset Overrun Length
16L 196 ft / 60 m 7,162 ft / 2,183 m 149.61° 157.02° Asphalt 190 ft / 58 m 0 ft / 0 m
16R 196 ft / 60 m 13,142 ft / 4,006 m 149.61° 157.02° Asphalt 0 ft / 0 m 410 ft / 125 m
34L 196 ft / 60 m 13,142 ft / 4,006 m 329.62° 337.03° Asphalt 0 ft / 0 m 415 ft / 126 m
34R 196 ft / 60 m 7,162 ft / 2,183 m 329.62° 337.03° Asphalt 190 ft / 58 m 0 ft / 0 m

Approach Navaids

Runway Type Ident Frequency Range Bearing (true) Bearing (mag) Slope Elevation
16L Localiser ITM 110.70 MHz 18 nm / 33 km 149.62° 157.02° - 141 ft / 43 m (AMSL)
16L Glidescope ITM 110.70 MHz 10 nm / 19 km 149.62° 157.02° 3.00° 141 ft / 43 m (AMSL)
16L DME ITM 110.70 MHz 18 nm / 33 km - - - 145 ft / 44 m (AMSL)
16R Localiser IKF 111.50 MHz 18 nm / 33 km 149.63° 157.03° - 141 ft / 43 m (AMSL)
16R Glidescope IKF 111.50 MHz 10 nm / 19 km 149.62° 157.02° 3.00° 141 ft / 43 m (AMSL)
16R DME IKF 111.50 MHz 18 nm / 33 km - - - 145 ft / 44 m (AMSL)
34L Localiser IYQ 111.90 MHz 18 nm / 33 km 329.61° 337.01° - 141 ft / 43 m (AMSL)
34L Glidescope IYQ 111.90 MHz 10 nm / 19 km 329.62° 337.02° 3.00° 141 ft / 43 m (AMSL)
34L DME IYQ 111.90 MHz 18 nm / 33 km - - - 153 ft / 47 m (AMSL)
34R Localiser ITJ 110.90 MHz 18 nm / 33 km 329.62° 337.02° - 141 ft / 43 m (AMSL)
34R Glidescope ITJ 110.90 MHz 10 nm / 19 km 329.62° 337.02° 3.00° 141 ft / 43 m (AMSL)
34R DME ITJ 110.90 MHz 18 nm / 33 km - - - 148 ft / 45 m (AMSL)

Popular Alternatives